Novomichurinsk, Russia
Current Conditions -  °F | °C
As of 1:00 PM on Thursday 23 Oct 2014 (Local Time) from UUDD Reporting Station
Few Clouds Few Clouds  
Wind Chill:   Ceiling: Unl
Heat Index: 21°   Visibility: 6mi
Dew Point:   Wind: 18mph
Humidity: 58%   Direction: 330°NNW
Pressure: 30.27"   Gusts: 29mph
Location:  54.04°N, 39.78°E
Report Text: UUDD 231000Z 33008G13MPS 9999 FEW025 M06/M13 Q1025 3219009582190095 NOSIG
Loading
Personal Weather Stations






























Interactive Weather Map
Tropical Storm Tracking
New forecast layout! Learn more

10-Day Weather Forecast

Advertisements
Track Severe Weather on mobile